Time;durP1;ratioP1;P1;durP2;ratioP2;P2;SDS_P1;SDS_P2;PMS_P1;PMS_P2;Temp;Humidity;BMP_temperature;BMP_pressure;BME280_temperature;BME280_humidity;BME280_pressure;Samples;Min_cycle;Max_cycle;Signal;HPM_P1;HPM_P2
2022/03/10 00:02:06;;;;;;;40.83;17.77;;;;;;;5.76;51.77;102371.00;5048624;28;20025;-54
2022/03/10 00:04:32;;;;;;;37.90;17.70;;;;;;;5.73;51.78;102370.97;5048131;28;20462;-57
2022/03/10 00:06:58;;;;;;;32.33;18.05;;;;;;;5.74;51.88;102371.84;5048741;28;20057;-54
2022/03/10 00:09:23;;;;;;;34.33;18.75;;;;;;;5.72;51.89;102373.56;5047281;28;20112;-52
2022/03/10 00:11:49;;;;;;;30.38;15.70;;;;;;;5.63;52.08;102369.13;5048699;28;20166;-54
2022/03/10 00:14:14;;;;;;;33.90;18.15;;;;;;;5.56;52.57;102369.03;5046052;28;20057;-55
2022/03/10 00:16:39;;;;;;;34.85;17.50;;;;;;;5.53;52.70;102369.00;5032457;28;20112;-56
2022/03/10 00:19:05;;;;;;;32.20;15.38;;;;;;;5.43;52.66;102372.38;5039800;28;20055;-55
2022/03/10 00:21:30;;;;;;;35.60;16.42;;;;;;;5.35;53.18;102381.84;5032457;28;20090;-57
2022/03/10 00:23:55;;;;;;;35.53;17.45;;;;;;;5.30;53.68;102376.56;5041795;28;20104;-56
2022/03/10 00:26:21;;;;;;;34.22;17.80;;;;;;;5.26;53.58;102378.25;5037947;28;20402;-56
2022/03/10 00:28:46;;;;;;;34.40;17.42;;;;;;;5.26;53.39;102372.13;5039395;28;20032;-55
2022/03/10 00:31:12;;;;;;;34.10;17.45;;;;;;;5.22;53.68;102375.56;5030057;28;20055;-56
2022/03/10 00:33:37;;;;;;;33.75;16.83;;;;;;;5.19;53.66;102368.56;5048773;28;20442;-56
2022/03/10 00:36:02;;;;;;;30.58;16.13;;;;;;;5.12;54.05;102370.22;5048401;28;20103;-56
2022/03/10 00:38:28;;;;;;;35.53;16.02;;;;;;;5.04;54.30;102370.13;5049575;28;20044;-56
2022/03/10 00:40:53;;;;;;;35.65;17.77;;;;;;;5.08;53.96;102370.19;5047063;28;20070;-53
2022/03/10 00:43:18;;;;;;;31.70;16.10;;;;;;;5.05;54.08;102366.66;5029613;28;20040;-57
2022/03/10 00:45:44;;;;;;;34.20;17.27;;;;;;;5.09;54.30;102367.56;5036287;28;20055;-58
2022/03/10 00:48:09;;;;;;;36.55;18.13;;;;;;;5.06;54.21;102371.00;5032208;28;20040;-55
2022/03/10 00:50:35;;;;;;;37.83;18.00;;;;;;;5.05;54.28;102377.09;5034639;28;20093;-53
2022/03/10 00:53:00;;;;;;;32.58;15.18;;;;;;;5.00;54.31;102373.53;5042405;28;20032;-56
2022/03/10 00:55:26;;;;;;;31.88;16.30;;;;;;;4.91;54.61;102365.59;5047883;28;20326;-55
2022/03/10 00:57:51;;;;;;;30.92;16.23;;;;;;;4.91;54.87;102373.44;5045399;28;20029;-55
2022/03/10 01:00:18;;;;;;;30.83;14.80;;;;;;;4.84;54.95;102366.34;5047312;28;20043;-58
2022/03/10 01:02:44;;;;;;;32.30;16.50;;;;;;;4.76;55.16;102367.09;5053678;28;20083;-55
2022/03/10 01:05:10;;;;;;;28.80;15.20;;;;;;;4.70;55.29;102374.88;5034745;28;20395;-55
2022/03/10 01:07:35;;;;;;;34.80;16.73;;;;;;;4.66;55.75;102378.25;5034039;28;20039;-57
2022/03/10 01:10:02;;;;;;;36.88;17.33;;;;;;;4.61;56.00;102379.94;5037851;28;20029;-58
2022/03/10 01:12:27;;;;;;;32.05;15.48;;;;;;;4.53;56.10;102370.25;5026275;28;20045;-57
2022/03/10 01:14:53;;;;;;;32.60;16.30;;;;;;;4.51;56.43;102371.94;5026587;28;20615;-61
2022/03/10 01:17:18;;;;;;;34.58;16.42;;;;;;;4.50;56.41;102374.53;5064819;28;20383;-57
2022/03/10 01:19:44;;;;;;;33.90;16.08;;;;;;;4.46;56.32;102368.41;5039346;28;20737;-56
2022/03/10 01:22:09;;;;;;;35.80;17.63;;;;;;;4.45;56.89;102369.22;5036304;28;20490;-55
2022/03/10 01:24:35;;;;;;;33.78;17.42;;;;;;;4.49;56.94;102365.81;5038404;28;20070;-56
2022/03/10 01:27:00;;;;;;;31.38;16.60;;;;;;;4.49;56.91;102362.34;5040553;28;20107;-55
2022/03/10 01:29:25;;;;;;;31.35;17.63;;;;;;;4.49;57.02;102363.19;5040452;28;20683;-58
2022/03/10 01:31:51;;;;;;;39.25;17.10;;;;;;;4.47;56.94;102359.69;5018657;28;20021;-57
2022/03/10 01:34:16;;;;;;;38.95;17.45;;;;;;;4.46;57.39;102357.97;5047175;28;20013;-57
2022/03/10 01:36:41;;;;;;;34.72;17.48;;;;;;;4.45;57.22;102358.78;5046634;28;20024;-55
2022/03/10 01:39:07;;;;;;;42.58;18.70;;;;;;;4.42;57.56;102362.22;5043723;28;20032;-57
2022/03/10 01:41:33;;;;;;;34.28;18.23;;;;;;;4.39;57.82;102359.56;5045046;28;20171;-56
2022/03/10 01:44:03;;;;;;;36.55;18.67;;;;;;;4.36;57.94;102363.88;5036536;28;20029;-57
2022/03/10 01:46:28;;;;;;;33.72;17.17;;;;;;;4.34;57.73;102362.97;5041301;28;20486;-57
2022/03/10 01:48:55;;;;;;;34.65;17.08;;;;;;;4.28;58.32;102361.13;5046878;28;20017;-56
2022/03/10 01:51:21;;;;;;;34.92;17.58;;;;;;;4.30;58.42;102365.50;5039894;28;20029;-55
2022/03/10 01:53:50;;;;;;;30.08;15.77;;;;;;;4.22;58.60;102366.25;5028020;28;20045;-55
2022/03/10 01:56:16;;;;;;;36.05;16.83;;;;;;;4.17;58.65;102359.22;5046360;28;20039;-55
2022/03/10 01:58:42;;;;;;;30.23;16.35;;;;;;;4.12;58.93;102360.84;5046027;28;20025;-54
2022/03/10 02:01:09;;;;;;;35.55;17.98;;;;;;;4.12;59.26;102354.78;5042919;28;20032;-57
2022/03/10 02:03:35;;;;;;;45.60;19.27;;;;;;;4.16;59.16;102364.41;5038467;28;20100;-58
2022/03/10 02:06:00;;;;;;;38.95;19.17;;;;;;;4.14;59.27;102360.88;5034713;28;20024;-55
2022/03/10 02:11:09;;;;;;;37.60;18.35;;;;;;;4.06;59.86;102359.88;5038828;28;20048;-56
2022/03/10 02:13:34;;;;;;;41.28;17.98;;;;;;;4.04;59.84;102365.06;5039545;28;20033;-55
2022/03/10 02:18:44;;;;;;;34.92;18.85;;;;;;;4.03;60.07;102366.78;5026625;28;20060;-55
2022/03/10 02:21:10;;;;;;;32.80;16.42;;;;;;;4.00;60.27;102358.91;5023989;28;20484;-58
2022/03/10 02:23:35;;;;;;;30.55;15.98;;;;;;;3.96;60.41;102359.72;5035112;28;20025;-57
2022/03/10 02:26:00;;;;;;;32.85;17.45;;;;;;;3.99;60.36;102364.97;5045396;28;20132;-55
2022/03/10 02:28:26;;;;;;;34.00;18.88;;;;;;;3.96;60.76;102357.09;5024946;28;20025;-57
2022/03/10 02:30:52;;;;;;;35.47;17.13;;;;;;;3.93;60.70;102359.66;5032725;28;20025;-55
2022/03/10 02:33:17;;;;;;;39.28;18.98;;;;;;;3.90;61.04;102362.19;5036136;28;20418;-57
2022/03/10 02:35:43;;;;;;;31.25;16.40;;;;;;;3.83;61.35;102360.31;5044238;28;20407;-57
2022/03/10 02:38:08;;;;;;;34.15;17.60;;;;;;;3.82;61.67;102359.44;5043901;28;20499;-57
2022/03/10 02:40:33;;;;;;;40.97;19.17;;;;;;;3.87;61.66;102359.53;5045857;28;20132;-55
2022/03/10 02:42:59;;;;;;;40.60;19.98;;;;;;;3.90;61.60;102362.19;5043933;28;20459;-55
2022/03/10 02:45:25;;;;;;;36.33;18.50;;;;;;;3.93;61.36;102364.88;5031046;28;20472;-54
2022/03/10 02:47:50;;;;;;;40.05;21.23;;;;;;;3.90;61.59;102357.88;5043136;28;20029;-58
2022/03/10 02:50:16;;;;;;;36.95;18.75;;;;;;;3.90;61.54;102365.69;5037958;28;20433;-58
2022/03/10 02:52:42;;;;;;;34.22;17.48;;;;;;;3.81;61.63;102367.22;5035454;28;20025;-58
2022/03/10 02:55:08;;;;;;;34.20;17.85;;;;;;;3.79;62.01;102369.81;5039813;28;20138;-59
2022/03/10 02:57:34;;;;;;;38.72;17.73;;;;;;;3.78;62.03;102370.66;5051337;28;20029;-64
2022/03/10 03:00:00;;;;;;;35.75;19.20;;;;;;;3.83;61.94;102368.16;5045358;28;20383;-55
2022/03/10 03:02:25;;;;;;;34.33;17.98;;;;;;;3.83;62.14;102368.16;5044909;28;20025;-56
2022/03/10 03:04:51;;;;;;;39.45;20.30;;;;;;;3.79;62.12;102373.31;5040075;28;20118;-55
2022/03/10 03:07:16;;;;;;;39.95;20.13;;;;;;;3.77;62.35;102369.78;5044276;28;20036;-57
2022/03/10 03:09:42;;;;;;;38.17;17.35;;;;;;;3.68;62.43;102374.84;5044970;28;20418;-56
2022/03/10 03:12:07;;;;;;;39.20;18.88;;;;;;;3.57;62.60;102376.31;5044265;28;20049;-59
2022/03/10 03:14:32;;;;;;;39.03;19.88;;;;;;;3.47;63.54;102378.78;5045443;28;20113;-56
2022/03/10 03:16:59;;;;;;;37.72;18.80;;;;;;;3.47;63.22;102378.78;5044616;28;20017;-56
2022/03/10 03:19:25;;;;;;;32.67;17.85;;;;;;;3.44;63.40;102383.03;5044644;28;20029;-56
2022/03/10 03:21:53;;;;;;;38.15;19.17;;;;;;;3.38;63.85;102391.59;5045007;28;20020;-56
2022/03/10 03:24:19;;;;;;;38.22;20.00;;;;;;;3.37;63.99;102397.66;5038975;28;20475;-57
2022/03/10 03:26:44;;;;;;;34.53;18.55;;;;;;;3.34;64.15;102392.38;5041828;28;20117;-56
2022/03/10 03:29:10;;;;;;;36.63;17.58;;;;;;;3.35;64.35;102397.63;5044702;28;20121;-56
2022/03/10 03:31:36;;;;;;;41.90;18.85;;;;;;;3.35;64.77;102394.13;5045040;28;20313;-57
2022/03/10 03:34:02;;;;;;;35.65;19.17;;;;;;;3.40;64.60;102395.97;5038963;28;20502;-57
2022/03/10 03:36:27;;;;;;;38.92;20.25;;;;;;;3.42;64.75;102398.63;5044471;28;20025;-56
2022/03/10 03:38:52;;;;;;;32.00;17.95;;;;;;;3.44;64.84;102394.34;5037472;28;20160;-58
2022/03/10 03:41:18;;;;;;;37.75;19.88;;;;;;;3.47;65.00;102391.81;5043660;28;20025;-54
2022/03/10 03:43:43;;;;;;;35.17;18.58;;;;;;;3.46;64.95;102400.44;5040109;28;20025;-56
2022/03/10 03:46:09;;;;;;;38.80;19.35;;;;;;;3.52;64.93;102391.88;5043959;28;20039;-57
2022/03/10 03:48:34;;;;;;;37.13;18.63;;;;;;;3.55;64.85;102399.75;5044736;28;20533;-56
2022/03/10 03:51:00;;;;;;;43.65;20.45;;;;;;;3.54;64.99;102396.28;5044770;28;20064;-57
2022/03/10 03:53:25;;;;;;;39.40;19.77;;;;;;;3.50;65.04;102407.50;5040435;28;20682;-56
2022/03/10 03:55:50;;;;;;;36.30;17.77;;;;;;;3.46;64.91;102405.66;5044213;28;20353;-58
2022/03/10 03:58:16;;;;;;;36.40;19.23;;;;;;;3.46;65.23;102413.47;5044457;28;20395;-54
2022/03/10 04:00:41;;;;;;;41.25;21.90;;;;;;;3.35;65.56;102410.66;5044046;28;20472;-55
2022/03/10 04:03:10;;;;;;;38.28;20.63;;;;;;;3.35;65.35;102413.28;5044702;28;20033;-57
2022/03/10 04:05:37;;;;;;;37.53;20.75;;;;;;;3.25;65.88;102412.16;5044857;28;20114;-56
2022/03/10 04:08:02;;;;;;;43.10;20.02;;;;;;;3.22;65.82;102416.44;5043123;28;20024;-53
2022/03/10 04:10:28;;;;;;;39.42;19.38;;;;;;;3.12;65.70;102412.72;5044101;28;20021;-52
2022/03/10 04:12:53;;;;;;;37.97;20.77;;;;;;;3.01;66.35;102405.56;5044296;28;20124;-55
2022/03/10 04:15:18;;;;;;;44.22;19.92;;;;;;;2.99;66.66;102419.41;5044316;28;20332;-56
2022/03/10 04:17:44;;;;;;;42.38;20.58;;;;;;;2.94;66.83;102427.09;5044420;28;20463;-54
2022/03/10 04:20:13;;;;;;;38.83;18.60;;;;;;;2.86;66.82;102428.66;5043906;28;20106;-57
2022/03/10 04:22:39;;;;;;;36.00;19.75;;;;;;;2.80;67.06;102425.91;5043595;28;20138;-55
2022/03/10 04:25:05;;;;;;;37.25;18.33;;;;;;;2.75;67.22;102428.38;5043994;28;20029;-54
2022/03/10 04:27:31;;;;;;;35.00;18.45;;;;;;;2.67;67.42;102428.19;5044155;28;20025;-56
2022/03/10 04:29:56;;;;;;;35.63;19.05;;;;;;;2.64;67.70;102425.50;5038096;28;20475;-56
2022/03/10 04:32:21;;;;;;;42.78;20.00;;;;;;;2.59;67.98;102421.91;5040621;28;20113;-55
2022/03/10 04:34:47;;;;;;;42.15;19.80;;;;;;;2.57;68.35;102426.19;5041109;28;20039;-56
2022/03/10 04:37:13;;;;;;;40.95;20.27;;;;;;;2.43;68.83;102424.13;5035918;28;20021;-58
2022/03/10 04:39:38;;;;;;;35.17;18.77;;;;;;;2.33;68.78;102427.31;5043797;28;20376;-55
2022/03/10 04:42:03;;;;;;;39.15;19.52;;;;;;;2.23;69.50;102424.47;5044448;28;20017;-57
2022/03/10 04:44:28;;;;;;;38.60;19.83;;;;;;;2.19;69.56;102414.84;5041446;28;20116;-57
2022/03/10 04:46:54;;;;;;;37.72;19.60;;;;;;;2.12;69.81;102412.91;5042003;28;20164;-57
2022/03/10 04:49:19;;;;;;;35.58;19.60;;;;;;;2.10;69.98;102423.28;5047353;28;20021;-55
2022/03/10 04:51:44;;;;;;;41.50;20.15;;;;;;;2.11;70.04;102414.63;5042989;28;20082;-58
2022/03/10 04:54:10;;;;;;;38.30;19.95;;;;;;;2.05;70.21;102411.88;5046115;28;20094;-57
2022/03/10 04:56:35;;;;;;;36.67;19.98;;;;;;;2.06;70.10;102412.75;5047834;28;20101;-54
2022/03/10 04:59:00;;;;;;;45.08;19.27;;;;;;;2.03;70.15;102413.56;5046030;28;20476;-56
2022/03/10 05:01:26;;;;;;;38.25;20.23;;;;;;;2.02;70.25;102415.25;5046756;28;20037;-55
2022/03/10 05:03:51;;;;;;;33.60;18.40;;;;;;;1.99;69.76;102417.78;5040693;28;20031;-55
2022/03/10 05:06:16;;;;;;;40.88;20.50;;;;;;;1.94;70.46;102414.19;5046892;28;20029;-60
2022/03/10 05:08:41;;;;;;;43.00;22.25;;;;;;;1.92;70.35;102415.84;5045927;28;20472;-55
2022/03/10 05:11:07;;;;;;;38.28;20.45;;;;;;;1.89;70.46;102406.25;5046687;28;20048;-59
2022/03/10 05:13:33;;;;;;;30.98;17.08;;;;;;;1.80;71.01;102405.13;5043051;28;20041;-58
2022/03/10 05:15:58;;;;;;;37.03;21.25;;;;;;;1.81;71.05;102407.78;5041417;28;20021;-56
2022/03/10 05:18:23;;;;;;;38.10;21.05;;;;;;;1.82;71.11;102406.03;5046869;28;20017;-57
2022/03/10 05:20:49;;;;;;;42.60;20.45;;;;;;;1.81;71.11;102406.88;5046869;28;20052;-58
2022/03/10 05:23:14;;;;;;;37.33;19.17;;;;;;;1.80;71.12;102410.31;5039199;28;20028;-57
2022/03/10 05:25:41;;;;;;;38.15;20.40;;;;;;;1.82;71.27;102414.72;5046842;28;20025;-57
2022/03/10 05:28:13;;;;;;;41.25;21.45;;;;;;;1.82;71.41;102414.72;5046689;28;20037;-59
2022/03/10 05:30:39;;;;;;;36.67;19.70;;;;;;;1.88;71.15;102420.09;5045875;28;20074;-55
2022/03/10 05:33:04;;;;;;;36.80;20.52;;;;;;;1.92;71.03;102413.25;5043489;28;20092;-56
2022/03/10 05:35:29;;;;;;;37.20;19.55;;;;;;;1.94;71.00;102415.91;5046336;28;20021;-56
2022/03/10 05:37:56;;;;;;;41.38;21.70;;;;;;;1.97;71.12;102422.06;5045347;28;20455;-55
2022/03/10 05:40:22;;;;;;;41.88;20.45;;;;;;;1.99;71.17;102419.50;5046694;28;20406;-57
2022/03/10 05:42:50;;;;;;;34.70;18.63;;;;;;;2.01;70.81;102417.81;5046739;28;20115;-55
2022/03/10 05:45:20;;;;;;;42.03;20.98;;;;;;;2.09;70.80;102415.44;5046411;28;20154;-57
2022/03/10 05:47:46;;;;;;;38.17;20.52;;;;;;;2.19;70.44;102416.53;5046095;28;20611;-58
2022/03/10 05:50:11;;;;;;;37.42;19.27;;;;;;;2.24;70.30;102413.25;5046502;28;20213;-56
2022/03/10 05:52:36;;;;;;;35.53;19.13;;;;;;;2.29;70.08;102410.78;5045439;28;20032;-59
2022/03/10 05:55:03;;;;;;;40.55;19.00;;;;;;;2.35;69.71;102415.25;5046206;28;20079;-55
2022/03/10 05:57:28;;;;;;;37.15;20.88;;;;;;;2.40;69.83;102414.53;5045454;28;20352;-56
2022/03/10 05:59:53;;;;;;;40.00;18.98;;;;;;;2.38;69.47;102412.72;5045744;28;20074;-57
2022/03/10 06:02:19;;;;;;;38.90;20.75;;;;;;;2.38;69.42;102413.59;5045395;28;20477;-56
2022/03/10 06:04:45;;;;;;;35.70;18.42;;;;;;;2.38;69.64;102410.13;5045855;28;20503;-54
2022/03/10 06:07:10;;;;;;;37.67;20.02;;;;;;;2.35;69.84;102405.72;5044870;28;20058;-55
2022/03/10 06:09:36;;;;;;;39.47;20.42;;;;;;;2.36;69.90;102414.41;5045740;28;20013;-56
2022/03/10 06:12:01;;;;;;;36.42;21.23;;;;;;;2.37;69.94;102414.44;5047006;28;20047;-55
2022/03/10 06:14:26;;;;;;;44.97;20.20;;;;;;;2.42;69.70;102409.38;5047888;28;20733;-56
2022/03/10 06:16:52;;;;;;;39.58;21.33;;;;;;;2.48;69.59;102411.22;5041504;28;20036;-56
2022/03/10 06:19:17;;;;;;;43.67;21.33;;;;;;;2.52;69.46;102413.97;5033727;28;20057;-56
2022/03/10 06:21:43;;;;;;;34.40;20.08;;;;;;;2.56;69.53;102422.69;5022838;28;20536;-56
2022/03/10 06:24:09;;;;;;;36.53;20.83;;;;;;;2.57;69.20;102415.78;5039845;28;20188;-55
2022/03/10 06:26:36;;;;;;;36.78;20.40;;;;;;;2.64;69.05;102420.31;5038496;28;20039;-58
2022/03/10 06:29:03;;;;;;;42.30;21.35;;;;;;;2.65;68.83;102419.47;5040314;28;20021;-57
2022/03/10 06:31:28;;;;;;;45.38;22.08;;;;;;;2.69;68.81;102413.50;5046390;28;20173;-56
2022/03/10 06:33:54;;;;;;;41.38;21.25;;;;;;;2.76;68.41;102412.81;5065563;28;20522;-57
2022/03/10 06:36:19;;;;;;;40.88;20.63;;;;;;;2.84;68.03;102409.50;5063773;28;20409;-58
2022/03/10 06:38:44;;;;;;;40.08;19.58;;;;;;;2.87;68.19;102409.56;5062384;28;20032;-57
2022/03/10 06:41:10;;;;;;;39.85;20.85;;;;;;;2.90;67.95;102413.16;5065567;28;20036;-57
2022/03/10 06:43:35;;;;;;;35.92;19.42;;;;;;;2.95;67.59;102405.41;5047443;28;20032;-56
2022/03/10 06:46:00;;;;;;;40.70;20.05;;;;;;;3.03;67.38;102408.19;5044726;28;20044;-56
2022/03/10 06:48:26;;;;;;;44.60;21.08;;;;;;;3.10;67.31;102411.84;5043871;28;20104;-57
2022/03/10 06:50:51;;;;;;;42.70;19.77;;;;;;;3.14;67.03;102414.56;5040610;28;20028;-57
2022/03/10 06:53:17;;;;;;;35.28;18.15;;;;;;;3.20;66.73;102419.00;5033386;28;20022;-57
2022/03/10 06:55:42;;;;;;;35.38;18.92;;;;;;;3.26;66.85;102431.28;5038814;28;20462;-56
2022/03/10 06:58:08;;;;;;;34.80;18.25;;;;;;;3.31;66.49;102431.41;5044622;28;20765;-58
2022/03/10 07:00:33;;;;;;;38.47;20.00;;;;;;;3.36;66.46;102432.38;5040604;28;20426;-54
2022/03/10 07:02:59;;;;;;;37.60;19.48;;;;;;;3.37;66.07;102436.75;5033200;28;20043;-56
2022/03/10 07:05:24;;;;;;;40.65;21.35;;;;;;;3.41;66.02;102433.34;5044519;28;20028;-54
2022/03/10 07:07:49;;;;;;;36.20;18.63;;;;;;;3.48;65.70;102427.44;5056395;28;20031;-54
2022/03/10 07:10:15;;;;;;;37.97;20.98;;;;;;;3.52;66.01;102437.06;5055335;28;20029;-55
2022/03/10 07:12:41;;;;;;;39.38;19.95;;;;;;;3.56;65.87;102432.81;5053776;28;20028;-55
2022/03/10 07:15:08;;;;;;;38.17;20.02;;;;;;;3.60;65.80;102434.63;5052587;28;20020;-62
2022/03/10 07:17:34;;;;;;;37.00;19.20;;;;;;;3.60;65.42;102437.25;5040694;28;20020;-55
2022/03/10 07:19:59;;;;;;;37.33;19.90;;;;;;;3.68;65.15;102440.00;5042026;28;20025;-56
2022/03/10 07:22:25;;;;;;;40.90;20.60;;;;;;;3.74;65.23;102434.94;5042449;28;20037;-56
2022/03/10 07:24:50;;;;;;;40.67;19.15;;;;;;;3.80;65.04;102442.00;5052950;28;20493;-57
2022/03/10 07:27:16;;;;;;;41.65;18.73;;;;;;;3.83;64.95;102443.78;5063210;28;20024;-55
2022/03/10 07:29:41;;;;;;;36.22;19.90;;;;;;;3.90;64.72;102443.03;5064363;28;20155;-55
2022/03/10 07:32:07;;;;;;;45.03;21.42;;;;;;;3.98;64.43;102445.81;5064445;28;20028;-55
2022/03/10 07:34:32;;;;;;;33.13;18.73;;;;;;;4.04;63.98;102441.56;5061203;28;20085;-55
2022/03/10 07:36:58;;;;;;;35.70;18.52;;;;;;;4.13;63.90;102440.88;5044132;28;20017;-55
2022/03/10 07:39:23;;;;;;;40.25;20.65;;;;;;;4.21;63.84;102445.38;5043742;28;20037;-56
2022/03/10 07:41:48;;;;;;;46.13;21.52;;;;;;;4.17;64.23;102444.44;5044160;28;20048;-54
2022/03/10 07:44:14;;;;;;;34.75;19.75;;;;;;;4.23;63.68;102448.88;5044318;28;20020;-56
2022/03/10 07:46:39;;;;;;;35.63;19.25;;;;;;;4.33;63.34;102448.19;5044076;28;20056;-56
2022/03/10 07:49:05;;;;;;;44.35;20.55;;;;;;;4.37;63.07;102443.91;5036181;28;20104;-56
2022/03/10 07:51:30;;;;;;;40.20;20.02;;;;;;;4.48;62.72;102442.38;5033292;28;20208;-57
2022/03/10 07:53:56;;;;;;;38.00;19.65;;;;;;;4.50;62.66;102438.06;5039439;28;20436;-56
2022/03/10 07:56:21;;;;;;;35.60;19.33;;;;;;;4.57;62.69;102441.66;5042095;28;20037;-57
2022/03/10 07:58:46;;;;;;;38.13;18.92;;;;;;;4.65;62.33;102440.06;5031220;28;20037;-57
2022/03/10 08:01:12;;;;;;;33.75;18.25;;;;;;;4.74;62.03;102447.16;5044484;28;20056;-56
2022/03/10 08:03:38;;;;;;;40.13;21.15;;;;;;;4.71;61.84;102441.91;5045196;28;20467;-57
2022/03/10 08:06:03;;;;;;;35.72;18.20;;;;;;;4.79;61.76;102447.25;5054017;28;20071;-55
2022/03/10 08:08:29;;;;;;;43.50;20.75;;;;;;;4.86;61.38;102446.50;5052389;28;20483;-57
2022/03/10 08:10:54;;;;;;;41.03;21.13;;;;;;;4.89;61.43;102449.16;5052867;28;20116;-58
2022/03/10 08:13:24;;;;;;;37.20;19.45;;;;;;;4.97;61.33;102448.38;5053312;28;20446;-54
2022/03/10 08:15:50;;;;;;;40.65;20.90;;;;;;;4.97;61.42;102453.63;5052272;28;20028;-55
2022/03/10 08:18:16;;;;;;;35.55;20.30;;;;;;;5.03;61.40;102453.72;5050855;28;20036;-57
2022/03/10 08:20:41;;;;;;;38.55;20.98;;;;;;;5.09;61.07;102445.09;5053965;28;20086;-56
2022/03/10 08:23:07;;;;;;;36.58;20.48;;;;;;;5.14;61.56;102440.78;5055606;28;20446;-57
2022/03/10 08:25:33;;;;;;;40.88;21.40;;;;;;;5.13;61.12;102439.03;5056500;28;20035;-57
2022/03/10 08:27:59;;;;;;;41.75;20.65;;;;;;;5.10;61.29;102439.00;5057796;28;20423;-56
2022/03/10 08:30:24;;;;;;;47.20;21.63;;;;;;;5.18;61.26;102440.00;5053213;28;20035;-56
2022/03/10 08:32:49;;;;;;;36.50;19.35;;;;;;;5.29;60.79;102443.63;5053316;28;20019;-57
2022/03/10 08:35:18;;;;;;;46.92;20.23;;;;;;;5.37;61.06;102440.25;5053622;28;20112;-57
2022/03/10 08:37:43;;;;;;;43.88;21.85;;;;;;;5.42;60.82;102429.00;5048336;28;20087;-55
2022/03/10 08:40:10;;;;;;;33.60;18.70;;;;;;;5.53;60.94;102430.88;5040950;28;20025;-54
2022/03/10 08:42:36;;;;;;;47.90;22.70;;;;;;;5.51;60.83;102435.22;5025971;28;20041;-55
2022/03/10 08:45:01;;;;;;;38.90;20.85;;;;;;;5.64;61.06;102428.41;5026659;28;20178;-55
2022/03/10 08:47:28;;;;;;;40.88;22.77;;;;;;;5.75;60.90;102426.78;5027562;28;20046;-55
2022/03/10 08:49:54;;;;;;;41.58;19.95;;;;;;;5.89;60.45;102424.34;5026968;28;20079;-57
2022/03/10 08:52:19;;;;;;;37.33;20.67;;;;;;;5.93;60.11;102430.50;5026697;28;20372;-55
2022/03/10 08:54:45;;;;;;;38.13;20.63;;;;;;;5.95;59.62;102431.38;5027802;28;20112;-57
2022/03/10 08:57:10;;;;;;;38.05;20.23;;;;;;;5.98;59.46;102431.41;5025751;28;20005;-58
2022/03/10 08:59:35;;;;;;;40.08;20.55;;;;;;;6.06;59.63;102429.78;5027211;28;20116;-57
2022/03/10 09:02:01;;;;;;;47.55;22.08;;;;;;;6.06;59.77;102424.53;5026278;28;20029;-55
2022/03/10 09:04:28;;;;;;;39.47;20.85;;;;;;;6.04;59.87;102421.06;5027706;28;20039;-55
2022/03/10 09:06:53;;;;;;;42.38;21.98;;;;;;;6.05;59.89;102417.56;5026877;28;20056;-54
2022/03/10 09:09:18;;;;;;;40.53;21.38;;;;;;;6.14;60.25;102413.31;5027903;28;20763;-58
2022/03/10 09:11:44;;;;;;;48.05;20.83;;;;;;;6.25;60.49;102414.28;5024629;28;20096;-57
2022/03/10 09:14:09;;;;;;;39.10;19.75;;;;;;;6.32;60.64;102413.47;5023850;28;20599;-55
2022/03/10 09:16:35;;;;;;;36.90;20.90;;;;;;;6.51;60.15;102412.75;5026879;28;20162;-54
2022/03/10 09:19:00;;;;;;;40.35;21.60;;;;;;;6.66;59.72;102412.00;5025010;28;20501;-58
2022/03/10 09:21:26;;;;;;;43.20;21.50;;;;;;;6.74;59.75;102406.84;5026013;28;20902;-56
2022/03/10 09:23:52;;;;;;;41.55;20.70;;;;;;;6.82;59.92;102408.63;5027905;28;20029;-56
2022/03/10 09:26:17;;;;;;;44.47;19.60;;;;;;;7.01;59.90;102398.25;5026955;28;20033;-57
2022/03/10 09:28:43;;;;;;;44.30;21.67;;;;;;;7.11;59.55;102406.19;5024477;28;20068;-55
2022/03/10 09:31:12;;;;;;;40.78;19.70;;;;;;;7.33;59.04;102405.44;5044276;28;20025;-56
2022/03/10 09:33:37;;;;;;;38.88;20.40;;;;;;;7.45;59.06;102406.38;5046710;28;20483;-59
2022/03/10 09:36:03;;;;;;;40.65;21.23;;;;;;;7.63;58.52;102400.31;5046600;28;20036;-57
2022/03/10 09:38:28;;;;;;;44.90;21.58;;;;;;;7.68;58.27;102400.34;5045552;28;20376;-56
2022/03/10 09:40:54;;;;;;;44.17;20.92;;;;;;;7.70;58.04;102401.22;5049171;28;20028;-56
2022/03/10 09:43:27;;;;;;;36.35;20.85;;;;;;;7.77;58.23;102395.09;5057142;28;20258;-54
2022/03/10 09:45:53;;;;;;;35.08;19.10;;;;;;;7.93;57.96;102389.91;5054445;28;20032;-55
2022/03/10 09:48:19;;;;;;;35.70;21.05;;;;;;;7.97;57.87;102397.78;5048053;28;20040;-57
2022/03/10 09:50:48;;;;;;;36.22;20.27;;;;;;;8.09;57.87;102394.31;5058990;28;20107;-56
2022/03/10 09:53:13;;;;;;;38.80;20.30;;;;;;;8.27;57.94;102394.31;5054450;28;20025;-57
2022/03/10 09:55:38;;;;;;;41.80;21.48;;;;;;;8.29;57.09;102389.97;5055360;28;20061;-54
2022/03/10 09:58:05;;;;;;;36.80;20.55;;;;;;;8.38;57.04;102386.47;5057287;28;20012;-57
2022/03/10 10:00:30;;;;;;;38.78;20.58;;;;;;;8.32;57.42;102382.97;5053282;28;20394;-55
2022/03/10 10:02:56;;;;;;;40.25;19.02;;;;;;;8.58;57.14;102383.88;5049216;28;20021;-56
2022/03/10 10:05:25;;;;;;;36.17;21.33;;;;;;;8.66;57.09;102389.09;5044070;28;20040;-55
2022/03/10 10:08:01;;;;;;;39.90;22.58;;;;;;;8.56;57.27;102388.25;5042760;28;20024;-54
2022/03/10 10:10:28;;;;;;;37.40;21.63;;;;;;;8.65;57.64;102397.88;5041077;28;20086;-55
2022/03/10 10:12:54;;;;;;;38.45;20.60;;;;;;;8.76;57.74;102385.59;5033608;28;20053;-56
2022/03/10 10:15:19;;;;;;;47.72;20.77;;;;;;;8.79;57.48;102390.84;5027878;28;20030;-55
2022/03/10 10:17:44;;;;;;;34.20;20.42;;;;;;;8.95;57.08;102382.94;5029345;28;20039;-54
2022/03/10 10:20:10;;;;;;;35.92;19.02;;;;;;;8.98;57.55;102380.31;5027728;28;20017;-52
2022/03/10 10:22:35;;;;;;;36.80;19.92;;;;;;;9.11;57.12;102383.78;5027676;28;20027;-53
2022/03/10 10:25:02;;;;;;;38.92;20.60;;;;;;;9.37;57.05;102374.03;5028503;28;20025;-54
2022/03/10 10:27:32;;;;;;;36.22;21.17;;;;;;;9.38;56.77;102378.41;5029413;28;20576;-57
2022/03/10 10:30:05;;;;;;;41.75;19.20;;;;;;;9.54;56.18;102374.84;5029089;28;20429;-55
2022/03/10 10:32:31;;;;;;;37.22;21.73;;;;;;;9.56;56.45;102378.34;5025155;28;20020;-55
2022/03/10 10:35:08;;;;;;;36.75;20.30;;;;;;;9.62;56.25;102377.44;5027627;28;20026;-54
2022/03/10 10:37:35;;;;;;;35.15;20.13;;;;;;;9.80;56.17;102378.22;5026865;28;20028;-58
2022/03/10 10:40:00;;;;;;;35.92;19.73;;;;;;;9.94;55.75;102380.78;5028820;28;20608;-56
2022/03/10 10:42:28;;;;;;;33.92;19.92;;;;;;;10.04;55.57;102371.91;5026717;28;20195;-55
2022/03/10 10:44:54;;;;;;;36.17;21.08;;;;;;;10.04;55.59;102381.56;5027690;28;20022;-57
2022/03/10 10:47:19;;;;;;;32.15;18.70;;;;;;;10.21;55.14;102378.81;5027580;28;20377;-57
2022/03/10 10:49:55;;;;;;;36.83;21.25;;;;;;;10.33;55.18;102375.22;5028966;28;20045;-57
2022/03/10 10:52:21;;;;;;;31.50;19.38;;;;;;;10.39;55.19;102377.81;5029311;28;20048;-54
2022/03/10 10:54:46;;;;;;;36.72;20.80;;;;;;;10.48;54.17;102368.97;5028118;28;20053;-57
2022/03/10 10:57:20;;;;;;;36.40;19.83;;;;;;;10.75;54.41;102380.16;5026898;28;20095;-53
2022/03/10 10:59:45;;;;;;;35.70;20.10;;;;;;;10.98;53.93;102371.09;5025629;28;20033;-56
2022/03/10 11:02:20;;;;;;;41.33;20.88;;;;;;;11.15;53.21;102368.28;5028450;28;20021;-57
2022/03/10 11:04:47;;;;;;;37.92;19.95;;;;;;;11.25;52.56;102359.38;5027325;28;20471;-55
2022/03/10 11:07:13;;;;;;;31.45;18.85;;;;;;;11.33;52.50;102350.50;5026690;28;20056;-53
2022/03/10 11:09:40;;;;;;;34.95;19.67;;;;;;;11.47;52.42;102352.97;5029800;28;20349;-55
2022/03/10 11:12:10;;;;;;;37.25;20.98;;;;;;;11.69;52.74;102347.38;5026213;28;20076;-54
2022/03/10 11:14:36;;;;;;;32.13;18.67;;;;;;;11.81;51.81;102344.56;5028841;28;20060;-56
2022/03/10 11:17:02;;;;;;;36.53;19.10;;;;;;;12.04;51.07;102342.47;5030258;28;20522;-59